Time;durP1;ratioP1;P1;durP2;ratioP2;P2;SDS_P1;SDS_P2;PMS_P1;PMS_P2;Temp;Humidity;BMP_temperature;BMP_pressure;BME280_temperature;BME280_humidity;BME280_pressure;Samples;Min_cycle;Max_cycle;Signal;HPM_P1;HPM_P2
2022/09/29 00:00:14;;;;;;;;;;;;;;;7.24;70.24219;100044.5;;;;-75
2022/09/29 00:05:13;;;;;;;;;;;;;;;7.26;70.66504;100043.6;;;;-75
2022/09/29 00:10:13;;;;;;;;;;;;;;;7.23;70.58203;100042.4;;;;-75
2022/09/29 00:15:14;;;;;;;;;;;;;;;7.21;70.4248;100042.1;;;;-76
2022/09/29 00:20:14;;;;;;;;;;;;;;;7.22;70.62402;100045.8;;;;-76
2022/09/29 00:21:04;;;;;;;4.1;1.9;;;;;;;;;;;;;-76
2022/09/29 00:25:13;;;;;;;;;;;;;;;7.22;70.80078;100042.4;;;;-76
2022/09/29 00:30:13;;;;;;;;;;;;;;;7.2;70.52246;100046.9;;;;-76
2022/09/29 00:35:15;;;;;;;;;;;;;;;7.17;70.5166;100047.3;;;;-76
2022/09/29 00:40:13;;;;;;;;;;;;;;;7.15;70.80078;100047.5;;;;-72
2022/09/29 00:45:21;;;;;;;;;;;;;;;7.12;70.55273;100047.1;;;;-71
2022/09/29 00:50:17;;;;;;;;;;;;;;;7.13;70.33398;100043.8;;;;-72
2022/09/29 00:51:00;;;;;;;4.3;1.9;;;;;;;;;;;;;-72
2022/09/29 00:55:19;;;;;;;;;;;;;;;7.06;70.04883;100047.4;;;;-72
2022/09/29 01:00:17;;;;;;;;;;;;;;;7.04;70.41895;100048.3;;;;-72
2022/09/29 01:05:17;;;;;;;;;;;;;;;7.02;70.07422;100045.2;;;;-71
2022/09/29 01:10:13;;;;;;;;;;;;;;;7;70.54492;100043.8;;;;-71
2022/09/29 01:15:13;;;;;;;;;;;;;;;6.95;70.16211;100038.7;;;;-72
2022/09/29 01:20:16;;;;;;;;;;;;;;;6.94;70.0498;100037.5;;;;-70
2022/09/29 01:21:08;;;;;;;3.2;1.7;;;;;;;;;;;;;-72
2022/09/29 01:25:25;;;;;;;;;;;;;;;6.95;70.25;100038.1;;;;-76
2022/09/29 01:30:17;;;;;;;;;;;;;;;6.91;69.72559;100037.4;;;;-75
2022/09/29 01:35:17;;;;;;;;;;;;;;;6.87;69.81836;100043;;;;-75
2022/09/29 01:40:16;;;;;;;;;;;;;;;6.82;69.87695;100046.1;;;;-75
2022/09/29 01:45:18;;;;;;;;;;;;;;;6.82;69.77832;100051.4;;;;-77
2022/09/29 01:50:15;;;;;;;;;;;;;;;6.78;69.55176;100052.1;;;;-75
2022/09/29 01:51:04;;;;;;;4.5;1.9;;;;;;;;;;;;;-75
2022/09/29 01:55:19;;;;;;;;;;;;;;;6.74;69.83105;100056.4;;;;-75
2022/09/29 02:00:15;;;;;;;;;;;;;;;6.67;69.85352;100058.5;;;;-77
2022/09/29 02:05:16;;;;;;;;;;;;;;;6.66;69.85156;100059.6;;;;-76
2022/09/29 02:10:15;;;;;;;;;;;;;;;6.67;69.74219;100059.6;;;;-76
2022/09/29 02:15:16;;;;;;;;;;;;;;;6.54;69.75488;100058.8;;;;-77
2022/09/29 02:20:13;;;;;;;;;;;;;;;6.53;69.99512;100052.5;;;;-76
2022/09/29 02:21:04;;;;;;;3.3;1.8;;;;;;;;;;;;;-75
2022/09/29 02:25:14;;;;;;;;;;;;;;;6.52;69.72949;100048.3;;;;-75
2022/09/29 02:30:19;;;;;;;;;;;;;;;6.48;69.61328;100049.6;;;;-76
2022/09/29 02:35:16;;;;;;;;;;;;;;;6.41;69.6582;100047.3;;;;-76
2022/09/29 02:40:20;;;;;;;;;;;;;;;6.38;69.83789;100050.2;;;;-75
2022/09/29 02:45:26;;;;;;;;;;;;;;;6.37;69.9043;100049.4;;;;-75
2022/09/29 02:50:30;;;;;;;;;;;;;;;6.34;69.91016;100051.5;;;;-75
2022/09/29 02:51:11;;;;;;;4.1;2.2;;;;;;;;;;;;;-76
2022/09/29 02:55:17;;;;;;;;;;;;;;;6.35;70.27344;100050.5;;;;-76
2022/09/29 03:00:14;;;;;;;;;;;;;;;6.33;70.17285;100047.2;;;;-73
2022/09/29 03:05:14;;;;;;;;;;;;;;;6.32;69.90625;100047;;;;-71
2022/09/29 03:10:14;;;;;;;;;;;;;;;6.33;69.74219;100050.5;;;;-72
2022/09/29 03:15:14;;;;;;;;;;;;;;;6.28;69.85645;100054.2;;;;-71
2022/09/29 03:20:13;;;;;;;;;;;;;;;6.24;69.83789;100057.3;;;;-72
2022/09/29 03:21:00;;;;;;;3.9;2.1;;;;;;;;;;;;;-72
2022/09/29 03:25:14;;;;;;;;;;;;;;;6.26;69.91797;100061.2;;;;-73
2022/09/29 03:30:15;;;;;;;;;;;;;;;6.22;70.05469;100061.5;;;;-71
2022/09/29 03:35:14;;;;;;;;;;;;;;;6.2;69.85254;100068.1;;;;-72
2022/09/29 03:40:13;;;;;;;;;;;;;;;6.18;70.74121;100072.5;;;;-72
2022/09/29 03:45:13;;;;;;;;;;;;;;;6.2;70.53516;100074.3;;;;-71
2022/09/29 03:50:13;;;;;;;;;;;;;;;6.2;70.52246;100078.3;;;;-71
2022/09/29 03:51:02;;;;;;;4.7;2.3;;;;;;;;;;;;;-73
2022/09/29 03:55:13;;;;;;;;;;;;;;;6.22;70.79102;100076.8;;;;-71
2022/09/29 04:00:15;;;;;;;;;;;;;;;6.24;71.39941;100080.1;;;;-72
2022/09/29 04:05:13;;;;;;;;;;;;;;;6.31;70.9043;100081.2;;;;-72
2022/09/29 04:10:13;;;;;;;;;;;;;;;6.25;71.05859;100085.8;;;;-72
2022/09/29 04:15:13;;;;;;;;;;;;;;;6.22;70.46094;100084;;;;-72
2022/09/29 04:20:13;;;;;;;;;;;;;;;6.28;70.19531;100089.5;;;;-71
2022/09/29 04:21:07;;;;;;;5.1;2.6;;;;;;;;;;;;;-72
2022/09/29 04:25:16;;;;;;;;;;;;;;;6.21;70.46094;100090.6;;;;-72
2022/09/29 04:30:14;;;;;;;;;;;;;;;6.2;70.1709;100099.2;;;;-71
2022/09/29 04:35:13;;;;;;;;;;;;;;;6.16;69.87012;100104.4;;;;-71
2022/09/29 04:40:13;;;;;;;;;;;;;;;6.13;70.05078;100108.1;;;;-72
2022/09/29 04:45:13;;;;;;;;;;;;;;;6.02;70.08789;100111.1;;;;-72
2022/09/29 04:50:14;;;;;;;;;;;;;;;5.96;70.02344;100113.5;;;;-72
2022/09/29 04:51:01;;;;;;;4.2;2.5;;;;;;;;;;;;;-72
2022/09/29 04:55:14;;;;;;;;;;;;;;;5.94;70.51563;100120.3;;;;-73
2022/09/29 05:00:14;;;;;;;;;;;;;;;5.89;70.19922;100119.3;;;;-72
2022/09/29 05:05:15;;;;;;;;;;;;;;;5.89;70.00195;100126.6;;;;-74
2022/09/29 05:10:13;;;;;;;;;;;;;;;5.88;70.55859;100130.4;;;;-76
2022/09/29 05:15:15;;;;;;;;;;;;;;;5.85;71.4873;100128.4;;;;-76
2022/09/29 05:20:13;;;;;;;;;;;;;;;5.91;70.95801;100130.8;;;;-75
2022/09/29 05:21:05;;;;;;;5.4;2.8;;;;;;;;;;;;;-76
2022/09/29 05:25:16;;;;;;;;;;;;;;;5.91;70.9707;100137.4;;;;-76
2022/09/29 05:30:13;;;;;;;;;;;;;;;5.97;70.99219;100135.4;;;;-76
2022/09/29 05:35:14;;;;;;;;;;;;;;;6.01;71.16309;100135.1;;;;-75
2022/09/29 05:40:24;;;;;;;;;;;;;;;6;71.10645;100145;;;;-74
2022/09/29 05:45:13;;;;;;;;;;;;;;;6.02;71.05469;100150.3;;;;-74
2022/09/29 05:50:14;;;;;;;;;;;;;;;6.01;70.81348;100151;;;;-77
2022/09/29 05:51:01;;;;;;;7.6;3;;;;;;;;;;;;;-75
2022/09/29 05:55:14;;;;;;;;;;;;;;;6.04;70.87207;100152.8;;;;-76
2022/09/29 06:00:13;;;;;;;;;;;;;;;6.06;70.66699;100153.8;;;;-74
2022/09/29 06:05:17;;;;;;;;;;;;;;;6.07;70.52539;100159.3;;;;-73
2022/09/29 06:10:13;;;;;;;;;;;;;;;6.1;70.65039;100160.8;;;;-76
2022/09/29 06:15:13;;;;;;;;;;;;;;;6.14;70.55762;100165.1;;;;-76
2022/09/29 06:20:13;;;;;;;;;;;;;;;6.19;70.06152;100172.6;;;;-74
2022/09/29 06:21:02;;;;;;;6.9;3;;;;;;;;;;;;;-75
2022/09/29 06:25:13;;;;;;;;;;;;;;;6.25;70.24609;100173.9;;;;-75
2022/09/29 06:30:14;;;;;;;;;;;;;;;6.33;70.2041;100176.6;;;;-75
2022/09/29 06:40:13;;;;;;;;;;;;;;;6.46;70.61133;100183.6;;;;-72
2022/09/29 06:45:15;;;;;;;;;;;;;;;6.55;70.5918;100189.5;;;;-72
2022/09/29 06:50:13;;;;;;;;;;;;;;;6.64;70.63965;100201;;;;-72
2022/09/29 06:51:02;;;;;;;5.6;2.9;;;;;;;;;;;;;-72
2022/09/29 06:55:13;;;;;;;;;;;;;;;6.75;70.60254;100209.4;;;;-71
2022/09/29 07:00:17;;;;;;;;;;;;;;;6.84;70.90332;100209.2;;;;-73
2022/09/29 07:05:15;;;;;;;;;;;;;;;6.97;70.31836;100213.2;;;;-73
2022/09/29 07:10:15;;;;;;;;;;;;;;;7.16;70.08691;100214.9;;;;-71
2022/09/29 07:15:13;;;;;;;;;;;;;;;7.33;69.77344;100216.1;;;;-71
2022/09/29 07:20:16;;;;;;;;;;;;;;;7.54;70.57715;100218.8;;;;-71
2022/09/29 07:21:03;;;;;;;5.7;3.4;;;;;;;;;;;;;-71
2022/09/29 07:25:13;;;;;;;;;;;;;;;7.81;69.91602;100223.8;;;;-71
2022/09/29 07:30:14;;;;;;;;;;;;;;;8.12;69.43555;100237.9;;;;-72
2022/09/29 07:35:13;;;;;;;;;;;;;;;8.45;68.49414;100237.8;;;;-72
2022/09/29 07:40:16;;;;;;;;;;;;;;;8.74;68.55078;100249.8;;;;-71
2022/09/29 07:45:13;;;;;;;;;;;;;;;9.1;70.10059;100253.6;;;;-75
2022/09/29 07:50:13;;;;;;;;;;;;;;;9.5;67.18652;100253.6;;;;-72
2022/09/29 07:51:07;;;;;;;5.4;3.3;;;;;;;;;;;;;-74
2022/09/29 07:55:18;;;;;;;;;;;;;;;9.97;66.80371;100256.9;;;;-72
2022/09/29 08:00:13;;;;;;;;;;;;;;;10.38;67.17676;100269.8;;;;-72
2022/09/29 08:05:13;;;;;;;;;;;;;;;10.83;67.49219;100266.2;;;;-71
2022/09/29 08:10:17;;;;;;;;;;;;;;;11.29;67.6084;100267;;;;-72
2022/09/29 08:15:13;;;;;;;;;;;;;;;11.77;65.79785;100273;;;;-72
2022/09/29 08:20:15;;;;;;;;;;;;;;;12.19;65.81641;100275.2;;;;-73
2022/09/29 08:21:06;;;;;;;7.7;4.8;;;;;;;;;;;;;-74
2022/09/29 08:25:13;;;;;;;;;;;;;;;12.66;64.51367;100276.3;;;;-72
2022/09/29 08:30:18;;;;;;;;;;;;;;;13.22;63.34277;100283.9;;;;-72
2022/09/29 08:35:14;;;;;;;;;;;;;;;13.64;62.41699;100290.9;;;;-72
2022/09/29 08:40:15;;;;;;;;;;;;;;;14.15;61.94043;100293;;;;-71
2022/09/29 08:45:23;;;;;;;;;;;;;;;14.61;60.84766;100300.5;;;;-73
2022/09/29 08:50:15;;;;;;;;;;;;;;;15.05;60.41406;100306.5;;;;-72
2022/09/29 08:51:06;;;;;;;8.9;4.7;;;;;;;;;;;;;-73
2022/09/29 08:55:26;;;;;;;;;;;;;;;15.35;59.04883;100307.1;;;;-72
2022/09/29 09:00:14;;;;;;;;;;;;;;;15.75;58.5498;100308.6;;;;-71
2022/09/29 09:05:22;;;;;;;;;;;;;;;16.1;57.84082;100309.1;;;;-73
2022/09/29 09:10:27;;;;;;;;;;;;;;;16.48;57.19043;100310.5;;;;-72
2022/09/29 09:15:28;;;;;;;;;;;;;;;16.89;56.63281;100315.3;;;;-71
2022/09/29 09:20:33;;;;;;;;;;;;;;;17.05;56.31543;100316.9;;;;-75
2022/09/29 09:21:14;;;;;;;7.3;4.1;;;;;;;;;;;;;-72
2022/09/29 09:25:18;;;;;;;;;;;;;;;17.39;56.12988;100324.4;;;;-71
2022/09/29 09:30:16;;;;;;;;;;;;;;;17.48;55.63281;100323.6;;;;-71
2022/09/29 09:35:22;;;;;;;;;;;;;;;17.68;55.49902;100323.4;;;;-72
2022/09/29 09:40:17;;;;;;;;;;;;;;;17.85;54.89746;100328.1;;;;-71
2022/09/29 09:45:17;;;;;;;;;;;;;;;18.11;54.28223;100326.4;;;;-72
2022/09/29 09:50:16;;;;;;;;;;;;;;;18.29;53.18066;100323.2;;;;-72
2022/09/29 09:51:20;;;;;;;4.8;2.8;;;;;;;;;;;;;-71
2022/09/29 09:55:18;;;;;;;;;;;;;;;18.53;53.95898;100323.6;;;;-72
2022/09/29 10:00:18;;;;;;;;;;;;;;;18.48;53.06738;100324.3;;;;-72
2022/09/29 10:05:22;;;;;;;;;;;;;;;18.7;53.40039;100326.7;;;;-71
2022/09/29 10:10:18;;;;;;;;;;;;;;;18.91;52.69922;100330.2;;;;-71
2022/09/29 10:15:18;;;;;;;;;;;;;;;19.1;52.43652;100330.9;;;;-72
2022/09/29 10:20:15;;;;;;;;;;;;;;;19.28;52.24023;100329.2;;;;-72
2022/09/29 10:21:24;;;;;;;3.8;2.4;;;;;;;;;;;;;-71
2022/09/29 10:25:19;;;;;;;;;;;;;;;19.56;51.7959;100336.1;;;;-70
2022/09/29 10:30:21;;;;;;;;;;;;;;;19.78;51.55957;100340.5;;;;-71
2022/09/29 10:35:20;;;;;;;;;;;;;;;19.99;51.09277;100347.9;;;;-72
2022/09/29 10:40:23;;;;;;;;;;;;;;;20;50.68359;100348;;;;-72
2022/09/29 10:45:18;;;;;;;;;;;;;;;20.14;51.15723;100351.4;;;;-71
2022/09/29 10:50:16;;;;;;;;;;;;;;;20.38;50.80664;100351.2;;;;-72
2022/09/29 10:51:22;;;;;;;3;1.8;;;;;;;;;;;;;-72
2022/09/29 10:55:18;;;;;;;;;;;;;;;20.5;49.65625;100350.2;;;;-71
2022/09/29 11:00:24;;;;;;;;;;;;;;;20.36;49.41211;100349.6;;;;-71
2022/09/29 11:05:22;;;;;;;;;;;;;;;20.31;50.28516;100360.9;;;;-72
2022/09/29 11:10:32;;;;;;;;;;;;;;;20.16;49.71973;100359.7;;;;-73
2022/09/29 11:15:26;;;;;;;;;;;;;;;20.09;50.64941;100361.2;;;;-71
2022/09/29 11:20:15;;;;;;;;;;;;;;;20.11;51.15234;100368.2;;;;-70
2022/09/29 11:21:26;;;;;;;2.6;1.6;;;;;;;;;;;;;-72
2022/09/29 11:25:17;;;;;;;;;;;;;;;20.13;51.21289;100369;;;;-75
2022/09/29 11:30:18;;;;;;;;;;;;;;;20.12;52.44238;100372.1;;;;-75
2022/09/29 11:35:20;;;;;;;;;;;;;;;20.22;51.91797;100376.3;;;;-75
2022/09/29 11:40:21;;;;;;;;;;;;;;;20.38;52.60938;100378.1;;;;-76
2022/09/29 11:45:17;;;;;;;;;;;;;;;20.55;52.18457;100385.5;;;;-75
2022/09/29 11:50:30;;;;;;;;;;;;;;;20.53;52.98242;100388.6;;;;-75
2022/09/29 11:51:04;;;;;;;;;;;;;;;20.58;52.97559;100388.3;;;;-76
2022/09/29 11:51:33;;;;;;;2.8;1.5;;;;;;;;;;;;;-76
2022/09/29 11:53:44;;;;;;;;;;;;;;;20.42;52.92285;100394.9;;;;-76
2022/09/29 11:58:45;;;;;;;;;;;;;;;20.24;54.36035;100403.2;;;;-76
2022/09/29 12:03:46;;;;;;;;;;;;;;;20.2;55.22266;100406.6;;;;-75
2022/09/29 12:08:45;;;;;;;;;;;;;;;20.28;54.92383;100402.7;;;;-75
2022/09/29 12:13:44;;;;;;;;;;;;;;;20.51;54.42871;100400.4;;;;-76
2022/09/29 12:18:41;;;;;;;;;;;;;;;20.7;52.69238;100405.9;;;;-76
2022/09/29 12:21:26;;;;;;;2;1;;;;;;;;;;;;;-75
2022/09/29 12:23:41;;;;;;;;;;;;;;;20.8;51.6084;100398.9;;;;-76
2022/09/29 12:28:41;;;;;;;;;;;;;;;20.82;51.62305;100399.8;;;;-76
2022/09/29 12:33:41;;;;;;;;;;;;;;;20.9;54.38477;100403.2;;;;-75
2022/09/29 12:38:45;;;;;;;;;;;;;;;21.03;52.99609;100401.2;;;;-76
2022/09/29 12:43:48;;;;;;;;;;;;;;;21;54.68262;100402.4;;;;-75
2022/09/29 12:48:51;;;;;;;;;;;;;;;20.86;54.62988;100410;;;;-74
2022/09/29 12:51:29;;;;;;;1.4;0.7;;;;;;;;;;;;;-75
2022/09/29 12:53:43;;;;;;;;;;;;;;;20.66;55.79297;100413.6;;;;-75
2022/09/29 12:58:46;;;;;;;;;;;;;;;20.46;55.35645;100419.1;;;;-74
2022/09/29 13:03:57;;;;;;;;;;;;;;;20.28;55.45898;100425.4;;;;-75
2022/09/29 13:08:49;;;;;;;;;;;;;;;20.09;55.8457;100427;;;;-72
2022/09/29 13:13:50;;;;;;;;;;;;;;;19.9;57.30273;100425.8;;;;-71
2022/09/29 13:18:51;;;;;;;;;;;;;;;19.65;56.88281;100428.5;;;;-73
2022/09/29 13:21:32;;;;;;;1.7;0.9;;;;;;;;;;;;;-74
2022/09/29 13:23:51;;;;;;;;;;;;;;;19.4;58.33008;100429.6;;;;-72
2022/09/29 13:28:42;;;;;;;;;;;;;;;19.15;58.30859;100433.3;;;;-72
2022/09/29 13:33:39;;;;;;;;;;;;;;;18.92;59.43555;100437.3;;;;-72
2022/09/29 13:38:40;;;;;;;;;;;;;;;18.7;59.55371;100436.1;;;;-71
2022/09/29 13:44:00;;;;;;;;;;;;;;;18.53;60.00684;100441.7;;;;-71
2022/09/29 13:48:43;;;;;;;;;;;;;;;18.34;59.91406;100444;;;;-71
2022/09/29 13:51:32;;;;;;;2.1;0.8;;;;;;;;;;;;;-72
2022/09/29 13:53:41;;;;;;;;;;;;;;;18.2;60.54004;100445.6;;;;-73
2022/09/29 13:58:41;;;;;;;;;;;;;;;18.06;60.38477;100447.3;;;;-72
2022/09/29 14:03:39;;;;;;;;;;;;;;;17.91;60.5;100453.2;;;;-71
2022/09/29 14:08:46;;;;;;;;;;;;;;;17.81;60.54297;100453.2;;;;-71
2022/09/29 14:13:45;;;;;;;;;;;;;;;17.73;60.11426;100460.6;;;;-72
2022/09/29 14:18:41;;;;;;;;;;;;;;;17.72;59.86328;100459.1;;;;-71
2022/09/29 14:21:44;;;;;;;1.2;0.8;;;;;;;;;;;;;-76
2022/09/29 14:23:53;;;;;;;;;;;;;;;17.73;59.74121;100460.8;;;;-75
2022/09/29 14:28:45;;;;;;;;;;;;;;;17.8;59.13965;100459.4;;;;-73
2022/09/29 14:33:43;;;;;;;;;;;;;;;17.91;59.93457;100461.2;;;;-73
2022/09/29 14:38:42;;;;;;;;;;;;;;;17.99;60.28516;100464.5;;;;-71
2022/09/29 14:43:46;;;;;;;;;;;;;;;18;60.36719;100462.2;;;;-77
2022/09/29 14:53:50;;;;;;;;;;;;;;;18.15;56.51074;100478.8;;;;-72
2022/09/29 14:58:57;;;;;;;;;;;;;;;18.21;55.56543;100474.9;;;;-75
2022/09/29 15:03:43;;;;;;;;;;;;;;;18.19;54.73535;100482.4;;;;-75
2022/09/29 15:08:39;;;;;;;;;;;;;;;18.22;53.83008;100486.3;;;;-75
2022/09/29 15:13:39;;;;;;;;;;;;;;;18.19;54.12207;100498.8;;;;-76
2022/09/29 15:18:44;;;;;;;;;;;;;;;18.06;54.51367;100504.6;;;;-76
2022/09/29 15:21:47;;;;;;;1.7;0.7;;;;;;;;;;;;;-76
2022/09/29 15:23:47;;;;;;;;;;;;;;;17.89;54.96973;100512.9;;;;-75
2022/09/29 15:29:03;;;;;;;;;;;;;;;17.73;55.94824;100512.2;;;;-77
2022/09/29 15:33:43;;;;;;;;;;;;;;;17.59;56.20215;100515.3;;;;-76
2022/09/29 15:38:40;;;;;;;;;;;;;;;17.47;57.47852;100522.6;;;;-76
2022/09/29 15:43:47;;;;;;;;;;;;;;;17.39;57.46582;100522.7;;;;-76
2022/09/29 15:48:39;;;;;;;;;;;;;;;17.32;58.01074;100526.4;;;;-77
2022/09/29 15:51:40;;;;;;;1.2;0.7;;;;;;;;;;;;;-74
2022/09/29 15:53:39;;;;;;;;;;;;;;;17.24;58.39648;100532.4;;;;-76
2022/09/29 15:58:50;;;;;;;;;;;;;;;17.15;58.66797;100536.8;;;;-75
2022/09/29 16:03:43;;;;;;;;;;;;;;;17.05;58.83594;100542.8;;;;-76
2022/09/29 16:08:54;;;;;;;;;;;;;;;16.98;59.13184;100552.4;;;;-79
2022/09/29 16:13:41;;;;;;;;;;;;;;;16.95;59.22754;100551.4;;;;-82
2022/09/29 16:18:44;;;;;;;;;;;;;;;16.96;59.10645;100562;;;;-81
2022/09/29 16:21:44;;;;;;;1;0.6;;;;;;;;;;;;;-84
2022/09/29 16:23:45;;;;;;;;;;;;;;;16.95;59.33105;100561.8;;;;-81
2022/09/29 16:28:45;;;;;;;;;;;;;;;16.89;59.45801;100567.3;;;;-80
2022/09/29 16:33:39;;;;;;;;;;;;;;;16.79;59.76074;100574.8;;;;-75
2022/09/29 16:38:44;;;;;;;;;;;;;;;16.67;60.00586;100587.7;;;;-76
2022/09/29 16:43:43;;;;;;;;;;;;;;;16.55;59.97656;100599.2;;;;-76
2022/09/29 16:48:44;;;;;;;;;;;;;;;16.41;60.15039;100599.4;;;;-75
2022/09/29 16:51:46;;;;;;;1.1;0.6;;;;;;;;;;;;;-75
2022/09/29 16:53:39;;;;;;;;;;;;;;;16.28;60.14453;100603.8;;;;-75
2022/09/29 16:58:39;;;;;;;;;;;;;;;16.17;60.18457;100607.1;;;;-75
2022/09/29 17:03:39;;;;;;;;;;;;;;;16.05;60.23633;100611.3;;;;-75
2022/09/29 17:08:39;;;;;;;;;;;;;;;15.94;60.05176;100614.8;;;;-77
2022/09/29 17:13:39;;;;;;;;;;;;;;;15.8;60.19043;100617;;;;-75
2022/09/29 17:18:39;;;;;;;;;;;;;;;15.64;60.32617;100620;;;;-74
2022/09/29 17:21:46;;;;;;;1;0.6;;;;;;;;;;;;;-74
2022/09/29 17:23:41;;;;;;;;;;;;;;;15.5;60.17285;100620.8;;;;-75
2022/09/29 17:28:39;;;;;;;;;;;;;;;15.35;59.94922;100620;;;;-75
2022/09/29 17:33:42;;;;;;;;;;;;;;;15.17;59.80078;100630.1;;;;-75
2022/09/29 17:38:39;;;;;;;;;;;;;;;14.98;60.16797;100639.8;;;;-76
2022/09/29 17:43:45;;;;;;;;;;;;;;;14.8;60.32324;100643.8;;;;-77
2022/09/29 17:48:40;;;;;;;;;;;;;;;14.6;60.4082;100644.4;;;;-76
2022/09/29 17:51:48;;;;;;;0.9;0.5;;;;;;;;;;;;;-75
2022/09/29 17:53:40;;;;;;;;;;;;;;;14.41;60.54199;100645.5;;;;-76
2022/09/29 17:58:39;;;;;;;;;;;;;;;14.25;60.42773;100653.4;;;;-76
2022/09/29 18:03:41;;;;;;;;;;;;;;;14.07;60.61621;100656.7;;;;-76
2022/09/29 18:08:39;;;;;;;;;;;;;;;13.89;60.91797;100665.3;;;;-76
2022/09/29 18:13:41;;;;;;;;;;;;;;;13.69;60.90137;100668.9;;;;-75
2022/09/29 18:18:39;;;;;;;;;;;;;;;13.49;60.97461;100676.8;;;;-76
2022/09/29 18:21:49;;;;;;;1.4;0.7;;;;;;;;;;;;;-76
2022/09/29 18:23:40;;;;;;;;;;;;;;;13.33;60.25586;100682;;;;-75
2022/09/29 18:28:39;;;;;;;;;;;;;;;13.2;60.62012;100692.4;;;;-76
2022/09/29 18:33:40;;;;;;;;;;;;;;;13.04;60.51953;100696.6;;;;-75
2022/09/29 18:38:45;;;;;;;;;;;;;;;12.94;61.43555;100695.9;;;;-76
2022/09/29 18:43:43;;;;;;;;;;;;;;;12.78;61.13281;100699.6;;;;-75
2022/09/29 18:48:42;;;;;;;;;;;;;;;12.64;61.31543;100703.3;;;;-77
2022/09/29 18:51:51;;;;;;;1.5;0.9;;;;;;;;;;;;;-75
2022/09/29 18:53:39;;;;;;;;;;;;;;;12.53;61.64551;100711.9;;;;-75
2022/09/29 18:58:43;;;;;;;;;;;;;;;12.4;61.82813;100719.7;;;;-74
2022/09/29 19:03:42;;;;;;;;;;;;;;;12.25;61.95117;100725.5;;;;-76
2022/09/29 19:08:43;;;;;;;;;;;;;;;12.16;62.05176;100722.1;;;;-75
2022/09/29 19:13:41;;;;;;;;;;;;;;;12.02;62.55664;100727.7;;;;-75
2022/09/29 19:18:39;;;;;;;;;;;;;;;11.9;62.98535;100735.9;;;;-76
2022/09/29 19:21:51;;;;;;;2.4;1.4;;;;;;;;;;;;;-76
2022/09/29 19:23:41;;;;;;;;;;;;;;;11.77;63.26758;100743.2;;;;-78
2022/09/29 19:28:40;;;;;;;;;;;;;;;11.65;63.77441;100742.8;;;;-76
2022/09/29 19:33:39;;;;;;;;;;;;;;;11.54;63.64551;100750.6;;;;-74
2022/09/29 19:38:41;;;;;;;;;;;;;;;11.44;63.53125;100763.8;;;;-78
2022/09/29 19:43:39;;;;;;;;;;;;;;;11.37;64.02344;100766.1;;;;-76
2022/09/29 19:48:40;;;;;;;;;;;;;;;11.28;63.9541;100767.4;;;;-75
2022/09/29 19:51:56;;;;;;;3.3;1.7;;;;;;;;;;;;;-77
2022/09/29 19:53:39;;;;;;;;;;;;;;;11.2;63.85449;100771;;;;-76
2022/09/29 19:58:40;;;;;;;;;;;;;;;11.11;63.95117;100779;;;;-76
2022/09/29 20:03:39;;;;;;;;;;;;;;;11.04;64.20898;100785.5;;;;-76
2022/09/29 20:08:44;;;;;;;;;;;;;;;10.99;63.98828;100789.9;;;;-76
2022/09/29 20:13:39;;;;;;;;;;;;;;;10.91;63.92285;100799.1;;;;-76
2022/09/29 20:18:39;;;;;;;;;;;;;;;10.85;64.44824;100798.4;;;;-76
2022/09/29 20:21:56;;;;;;;4.8;1.9;;;;;;;;;;;;;-75
2022/09/29 20:23:39;;;;;;;;;;;;;;;10.78;64.44824;100802.1;;;;-75
2022/09/29 20:28:39;;;;;;;;;;;;;;;10.71;64.26074;100796.2;;;;-76
2022/09/29 20:33:42;;;;;;;;;;;;;;;10.62;64.33691;100797.6;;;;-76
2022/09/29 20:38:42;;;;;;;;;;;;;;;10.55;64.63672;100804.3;;;;-75
2022/09/29 20:43:42;;;;;;;;;;;;;;;10.49;64.30566;100817.5;;;;-75
2022/09/29 20:48:40;;;;;;;;;;;;;;;10.4;64.45898;100826.7;;;;-75
2022/09/29 20:51:58;;;;;;;3.9;1.8;;;;;;;;;;;;;-75
2022/09/29 20:53:39;;;;;;;;;;;;;;;10.36;64.59766;100837;;;;-77
2022/09/29 20:58:42;;;;;;;;;;;;;;;10.31;64.65625;100838.8;;;;-75
2022/09/29 21:03:40;;;;;;;;;;;;;;;10.29;64.56445;100840;;;;-75
2022/09/29 21:08:40;;;;;;;;;;;;;;;10.25;64.50195;100842.1;;;;-75
2022/09/29 21:13:39;;;;;;;;;;;;;;;10.23;64.45605;100841.3;;;;-76
2022/09/29 21:18:39;;;;;;;;;;;;;;;10.21;64.61914;100850.1;;;;-76
2022/09/29 21:21:57;;;;;;;4.4;1.9;;;;;;;;;;;;;-75
2022/09/29 21:23:40;;;;;;;;;;;;;;;10.18;64.82617;100860.3;;;;-75
2022/09/29 21:28:39;;;;;;;;;;;;;;;10.21;64.69727;100856.9;;;;-74
2022/09/29 21:33:43;;;;;;;;;;;;;;;10.19;64.67188;100854.3;;;;-73
2022/09/29 21:38:41;;;;;;;;;;;;;;;10.19;64.90625;100862.4;;;;-76
2022/09/29 21:43:42;;;;;;;;;;;;;;;10.15;64.71094;100864.9;;;;-75
2022/09/29 21:48:40;;;;;;;;;;;;;;;10.14;64.66504;100871.1;;;;-75
2022/09/29 21:51:55;;;;;;;4.1;1.9;;;;;;;;;;;;;-76
2022/09/29 21:53:39;;;;;;;;;;;;;;;10.15;64.61133;100872.2;;;;-75
2022/09/29 21:58:39;;;;;;;;;;;;;;;10.17;64.90234;100872;;;;-75
2022/09/29 22:03:40;;;;;;;;;;;;;;;10.17;65.02637;100874.5;;;;-74
2022/09/29 22:08:39;;;;;;;;;;;;;;;10.19;64.93945;100871.3;;;;-75
2022/09/29 22:13:40;;;;;;;;;;;;;;;10.19;64.91504;100875;;;;-75
2022/09/29 22:17:44;;;;;;;;;;;;;;;10.26;64.92676;100876.8;;;;-74
2022/09/29 22:20:12;;;;;;;;;;;;;;;10.19;64.99414;100875.9;;;;-74
2022/09/29 22:21:55;;;;;;;2.7;1.5;;;;;;;;;;;;;-76
2022/09/29 22:25:12;;;;;;;;;;;;;;;10.2;64.6084;100881.7;;;;-75
2022/09/29 22:30:15;;;;;;;;;;;;;;;10.22;64.7666;100884.7;;;;-75
2022/09/29 22:35:12;;;;;;;;;;;;;;;10.22;64.55566;100883.5;;;;-76
2022/09/29 22:40:13;;;;;;;;;;;;;;;10.24;64.80176;100886;;;;-75
2022/09/29 22:45:13;;;;;;;;;;;;;;;10.25;64.50391;100881.9;;;;-75
2022/09/29 22:50:12;;;;;;;;;;;;;;;10.26;64.38281;100881.3;;;;-76
2022/09/29 22:51:55;;;;;;;3.6;1.8;;;;;;;;;;;;;-76
2022/09/29 22:55:12;;;;;;;;;;;;;;;10.28;64.71875;100883.6;;;;-75
2022/09/29 23:00:14;;;;;;;;;;;;;;;10.28;64.41895;100886.7;;;;-76
2022/09/29 23:05:12;;;;;;;;;;;;;;;10.29;64.37598;100886.8;;;;-76
2022/09/29 23:10:14;;;;;;;;;;;;;;;10.28;64.42969;100893.7;;;;-75
2022/09/29 23:15:16;;;;;;;;;;;;;;;10.31;64.71191;100889.6;;;;-75
2022/09/29 23:20:12;;;;;;;;;;;;;;;10.27;64.48438;100886.7;;;;-75
2022/09/29 23:21:56;;;;;;;4.4;1.8;;;;;;;;;;;;;-77
2022/09/29 23:25:15;;;;;;;;;;;;;;;10.29;64.65332;100879.5;;;;-75
2022/09/29 23:30:12;;;;;;;;;;;;;;;10.29;64.42969;100880.6;;;;-77
2022/09/29 23:35:13;;;;;;;;;;;;;;;10.3;64.55469;100883.8;;;;-77
2022/09/29 23:40:14;;;;;;;;;;;;;;;10.31;64.42285;100881.6;;;;-75
2022/09/29 23:45:12;;;;;;;;;;;;;;;10.29;64.46582;100878.6;;;;-75
2022/09/29 23:50:13;;;;;;;;;;;;;;;10.28;64.56348;100876.9;;;;-75
2022/09/29 23:51:58;;;;;;;2.3;1.5;;;;;;;;;;;;;-75
2022/09/29 23:55:12;;;;;;;;;;;;;;;10.26;64.38281;100876.3;;;;-75
